sensor_id;sensor_type;location;lat;lon;timestamp;temperature;humidity
2002;DHT22;1003;48.002;7.788;2022-12-07T00:01:44;3.50;99.90
2002;DHT22;1003;48.002;7.788;2022-12-07T00:04:16;3.50;99.90
2002;DHT22;1003;48.002;7.788;2022-12-07T00:06:45;3.50;99.90
2002;DHT22;1003;48.002;7.788;2022-12-07T00:09:17;3.50;99.90
2002;DHT22;1003;48.002;7.788;2022-12-07T00:11:48;3.50;99.90
2002;DHT22;1003;48.002;7.788;2022-12-07T00:14:17;3.50;99.90
2002;DHT22;1003;48.002;7.788;2022-12-07T00:16:45;3.50;99.90
2002;DHT22;1003;48.002;7.788;2022-12-07T00:19:17;3.50;99.90
2002;DHT22;1003;48.002;7.788;2022-12-07T00:21:44;3.50;99.90
2002;DHT22;1003;48.002;7.788;2022-12-07T00:24:11;3.50;99.90
2002;DHT22;1003;48.002;7.788;2022-12-07T00:26:40;3.50;99.90
2002;DHT22;1003;48.002;7.788;2022-12-07T00:29:11;3.50;99.90
2002;DHT22;1003;48.002;7.788;2022-12-07T00:31:41;3.50;99.90
2002;DHT22;1003;48.002;7.788;2022-12-07T00:34:13;3.50;99.90
2002;DHT22;1003;48.002;7.788;2022-12-07T00:36:43;3.50;99.90
2002;DHT22;1003;48.002;7.788;2022-12-07T00:39:10;3.50;99.90
2002;DHT22;1003;48.002;7.788;2022-12-07T00:41:38;3.50;99.90
2002;DHT22;1003;48.002;7.788;2022-12-07T00:44:05;3.50;99.90
2002;DHT22;1003;48.002;7.788;2022-12-07T00:46:32;3.50;99.90
2002;DHT22;1003;48.002;7.788;2022-12-07T00:48:59;3.50;99.90
2002;DHT22;1003;48.002;7.788;2022-12-07T00:51:26;3.50;99.90
2002;DHT22;1003;48.002;7.788;2022-12-07T00:53:55;3.50;99.90
2002;DHT22;1003;48.002;7.788;2022-12-07T00:56:23;3.50;99.90
2002;DHT22;1003;48.002;7.788;2022-12-07T00:58:52;3.50;99.90
2002;DHT22;1003;48.002;7.788;2022-12-07T01:01:21;3.50;99.90
2002;DHT22;1003;48.002;7.788;2022-12-07T01:03:49;3.50;99.90
2002;DHT22;1003;48.002;7.788;2022-12-07T01:06:18;3.50;99.90
2002;DHT22;1003;48.002;7.788;2022-12-07T01:08:46;3.50;99.90
2002;DHT22;1003;48.002;7.788;2022-12-07T01:11:15;3.50;99.90
2002;DHT22;1003;48.002;7.788;2022-12-07T01:13:44;3.50;99.90
2002;DHT22;1003;48.002;7.788;2022-12-07T01:16:13;3.50;99.90
2002;DHT22;1003;48.002;7.788;2022-12-07T01:18:42;3.40;99.90
2002;DHT22;1003;48.002;7.788;2022-12-07T01:21:14;3.40;99.90
2002;DHT22;1003;48.002;7.788;2022-12-07T01:23:43;3.40;99.90
2002;DHT22;1003;48.002;7.788;2022-12-07T01:26:12;3.40;99.90
2002;DHT22;1003;48.002;7.788;2022-12-07T01:28:42;3.40;99.90
2002;DHT22;1003;48.002;7.788;2022-12-07T01:31:11;3.40;99.90
2002;DHT22;1003;48.002;7.788;2022-12-07T01:33:41;3.40;99.90
2002;DHT22;1003;48.002;7.788;2022-12-07T01:36:14;3.40;99.90
2002;DHT22;1003;48.002;7.788;2022-12-07T01:38:44;3.40;99.90
2002;DHT22;1003;48.002;7.788;2022-12-07T01:41:14;3.40;99.90
2002;DHT22;1003;48.002;7.788;2022-12-07T01:44:10;3.50;99.90
2002;DHT22;1003;48.002;7.788;2022-12-07T01:46:40;3.50;99.90
2002;DHT22;1003;48.002;7.788;2022-12-07T01:49:11;3.50;99.90
2002;DHT22;1003;48.002;7.788;2022-12-07T01:51:42;3.50;99.90
2002;DHT22;1003;48.002;7.788;2022-12-07T01:54:12;3.50;99.90
2002;DHT22;1003;48.002;7.788;2022-12-07T01:56:45;3.50;99.90
2002;DHT22;1003;48.002;7.788;2022-12-07T01:59:18;3.50;99.90
2002;DHT22;1003;48.002;7.788;2022-12-07T02:01:48;3.50;99.90
2002;DHT22;1003;48.002;7.788;2022-12-07T02:04:15;3.60;99.90
2002;DHT22;1003;48.002;7.788;2022-12-07T02:06:43;3.60;99.90
2002;DHT22;1003;48.002;7.788;2022-12-07T02:09:11;3.70;99.90
2002;DHT22;1003;48.002;7.788;2022-12-07T02:11:39;3.80;99.90
2002;DHT22;1003;48.002;7.788;2022-12-07T02:14:08;3.70;99.90
2002;DHT22;1003;48.002;7.788;2022-12-07T02:16:43;3.70;99.90
2002;DHT22;1003;48.002;7.788;2022-12-07T02:19:54;3.90;99.90
2002;DHT22;1003;48.002;7.788;2022-12-07T02:22:57;3.80;99.90
2002;DHT22;1003;48.002;7.788;2022-12-07T02:25:55;3.80;99.90
2002;DHT22;1003;48.002;7.788;2022-12-07T02:28:36;3.80;99.90
2002;DHT22;1003;48.002;7.788;2022-12-07T02:31:12;3.70;99.90
2002;DHT22;1003;48.002;7.788;2022-12-07T02:33:49;3.90;99.90
2002;DHT22;1003;48.002;7.788;2022-12-07T02:36:25;3.80;99.90
2002;DHT22;1003;48.002;7.788;2022-12-07T02:39:00;3.90;99.90
2002;DHT22;1003;48.002;7.788;2022-12-07T02:41:36;3.80;99.90
2002;DHT22;1003;48.002;7.788;2022-12-07T02:44:09;3.70;99.90
2002;DHT22;1003;48.002;7.788;2022-12-07T02:46:42;3.60;99.90
2002;DHT22;1003;48.002;7.788;2022-12-07T02:49:11;3.60;99.90
2002;DHT22;1003;48.002;7.788;2022-12-07T02:51:40;3.60;99.90
2002;DHT22;1003;48.002;7.788;2022-12-07T02:54:12;3.50;99.90
2002;DHT22;1003;48.002;7.788;2022-12-07T02:56:47;3.50;99.90
2002;DHT22;1003;48.002;7.788;2022-12-07T02:59:25;3.60;99.90
2002;DHT22;1003;48.002;7.788;2022-12-07T03:02:06;3.50;99.90
2002;DHT22;1003;48.002;7.788;2022-12-07T03:04:46;3.30;99.90
2002;DHT22;1003;48.002;7.788;2022-12-07T03:07:27;3.30;99.90
2002;DHT22;1003;48.002;7.788;2022-12-07T03:10:02;3.30;99.90
2002;DHT22;1003;48.002;7.788;2022-12-07T03:12:39;3.20;99.90
2002;DHT22;1003;48.002;7.788;2022-12-07T03:15:16;3.20;99.90
2002;DHT22;1003;48.002;7.788;2022-12-07T03:17:51;3.30;99.90
2002;DHT22;1003;48.002;7.788;2022-12-07T03:20:24;3.30;99.90
2002;DHT22;1003;48.002;7.788;2022-12-07T03:22:54;3.30;99.90
2002;DHT22;1003;48.002;7.788;2022-12-07T03:25:22;3.30;99.90
2002;DHT22;1003;48.002;7.788;2022-12-07T03:27:52;3.30;99.90
2002;DHT22;1003;48.002;7.788;2022-12-07T03:30:26;3.30;99.90
2002;DHT22;1003;48.002;7.788;2022-12-07T03:33:01;3.30;99.90
2002;DHT22;1003;48.002;7.788;2022-12-07T03:35:36;3.30;99.90
2002;DHT22;1003;48.002;7.788;2022-12-07T03:38:13;3.30;99.90
2002;DHT22;1003;48.002;7.788;2022-12-07T03:40:47;3.30;99.90
2002;DHT22;1003;48.002;7.788;2022-12-07T03:43:21;3.20;99.90
2002;DHT22;1003;48.002;7.788;2022-12-07T03:45:55;3.20;99.90
2002;DHT22;1003;48.002;7.788;2022-12-07T03:48:36;3.20;99.90
2002;DHT22;1003;48.002;7.788;2022-12-07T03:51:12;3.30;99.90
2002;DHT22;1003;48.002;7.788;2022-12-07T03:53:50;3.30;99.90
2002;DHT22;1003;48.002;7.788;2022-12-07T03:56:22;3.30;99.90
2002;DHT22;1003;48.002;7.788;2022-12-07T03:58:52;3.30;99.90
2002;DHT22;1003;48.002;7.788;2022-12-07T04:01:20;3.20;99.90
2002;DHT22;1003;48.002;7.788;2022-12-07T04:03:51;3.20;99.90
2002;DHT22;1003;48.002;7.788;2022-12-07T04:06:18;3.20;99.90
2002;DHT22;1003;48.002;7.788;2022-12-07T04:08:45;3.20;99.90
2002;DHT22;1003;48.002;7.788;2022-12-07T04:11:12;3.20;99.90
2002;DHT22;1003;48.002;7.788;2022-12-07T04:13:39;3.20;99.90
2002;DHT22;1003;48.002;7.788;2022-12-07T04:16:24;3.20;99.90
2002;DHT22;1003;48.002;7.788;2022-12-07T04:18:52;3.20;99.90
2002;DHT22;1003;48.002;7.788;2022-12-07T04:21:19;3.10;99.90
2002;DHT22;1003;48.002;7.788;2022-12-07T04:23:46;3.10;99.90
2002;DHT22;1003;48.002;7.788;2022-12-07T04:26:13;3.10;99.90
2002;DHT22;1003;48.002;7.788;2022-12-07T04:28:40;3.10;99.90
2002;DHT22;1003;48.002;7.788;2022-12-07T04:31:07;3.00;99.90
2002;DHT22;1003;48.002;7.788;2022-12-07T04:33:35;3.00;99.90
2002;DHT22;1003;48.002;7.788;2022-12-07T04:36:04;3.00;99.90
2002;DHT22;1003;48.002;7.788;2022-12-07T04:38:33;3.00;99.90
2002;DHT22;1003;48.002;7.788;2022-12-07T04:41:04;3.00;99.90
2002;DHT22;1003;48.002;7.788;2022-12-07T04:43:32;3.00;99.90
2002;DHT22;1003;48.002;7.788;2022-12-07T04:45:59;3.00;99.90
2002;DHT22;1003;48.002;7.788;2022-12-07T04:48:28;3.00;99.90
2002;DHT22;1003;48.002;7.788;2022-12-07T04:50:55;3.00;99.90
2002;DHT22;1003;48.002;7.788;2022-12-07T04:53:23;3.00;99.90
2002;DHT22;1003;48.002;7.788;2022-12-07T04:55:50;3.00;99.90
2002;DHT22;1003;48.002;7.788;2022-12-07T04:58:17;3.00;99.90
2002;DHT22;1003;48.002;7.788;2022-12-07T05:00:44;3.00;99.90
2002;DHT22;1003;48.002;7.788;2022-12-07T05:03:11;2.90;99.90
2002;DHT22;1003;48.002;7.788;2022-12-07T05:05:40;2.90;99.90
2002;DHT22;1003;48.002;7.788;2022-12-07T05:08:07;3.00;99.90
2002;DHT22;1003;48.002;7.788;2022-12-07T05:10:36;3.00;99.90
2002;DHT22;1003;48.002;7.788;2022-12-07T05:13:03;2.90;99.90
2002;DHT22;1003;48.002;7.788;2022-12-07T05:15:30;2.80;99.90
2002;DHT22;1003;48.002;7.788;2022-12-07T05:17:57;2.80;99.90
2002;DHT22;1003;48.002;7.788;2022-12-07T05:20:24;2.70;99.90
2002;DHT22;1003;48.002;7.788;2022-12-07T05:22:52;2.70;99.90
2002;DHT22;1003;48.002;7.788;2022-12-07T05:25:19;2.70;99.90
2002;DHT22;1003;48.002;7.788;2022-12-07T05:27:47;2.60;99.90
2002;DHT22;1003;48.002;7.788;2022-12-07T05:30:14;2.60;99.90
2002;DHT22;1003;48.002;7.788;2022-12-07T05:32:41;2.60;99.90
2002;DHT22;1003;48.002;7.788;2022-12-07T05:35:09;2.50;99.90
2002;DHT22;1003;48.002;7.788;2022-12-07T05:37:36;2.50;99.90
2002;DHT22;1003;48.002;7.788;2022-12-07T05:40:04;2.40;99.90
2002;DHT22;1003;48.002;7.788;2022-12-07T05:42:32;2.40;99.90
2002;DHT22;1003;48.002;7.788;2022-12-07T05:45:01;2.40;99.90
2002;DHT22;1003;48.002;7.788;2022-12-07T05:47:28;2.30;99.90
2002;DHT22;1003;48.002;7.788;2022-12-07T05:49:55;2.30;99.90
2002;DHT22;1003;48.002;7.788;2022-12-07T05:52:23;2.30;99.90
2002;DHT22;1003;48.002;7.788;2022-12-07T05:54:50;2.30;99.90
2002;DHT22;1003;48.002;7.788;2022-12-07T05:57:17;2.20;99.90
2002;DHT22;1003;48.002;7.788;2022-12-07T05:59:44;2.20;99.90
2002;DHT22;1003;48.002;7.788;2022-12-07T06:02:14;2.20;99.90
2002;DHT22;1003;48.002;7.788;2022-12-07T06:04:45;2.20;99.90
2002;DHT22;1003;48.002;7.788;2022-12-07T06:07:14;2.20;99.90
2002;DHT22;1003;48.002;7.788;2022-12-07T06:09:42;2.10;99.90
2002;DHT22;1003;48.002;7.788;2022-12-07T06:12:10;2.10;99.90
2002;DHT22;1003;48.002;7.788;2022-12-07T06:14:55;2.10;99.90
2002;DHT22;1003;48.002;7.788;2022-12-07T06:17:24;2.10;99.90
2002;DHT22;1003;48.002;7.788;2022-12-07T06:19:51;2.10;99.90
2002;DHT22;1003;48.002;7.788;2022-12-07T06:22:18;2.00;99.90
2002;DHT22;1003;48.002;7.788;2022-12-07T06:24:45;2.00;99.90
2002;DHT22;1003;48.002;7.788;2022-12-07T06:27:12;1.90;99.90
2002;DHT22;1003;48.002;7.788;2022-12-07T06:29:40;1.80;99.90
2002;DHT22;1003;48.002;7.788;2022-12-07T06:32:07;1.80;99.90
2002;DHT22;1003;48.002;7.788;2022-12-07T06:34:35;1.70;99.90
2002;DHT22;1003;48.002;7.788;2022-12-07T06:37:03;1.60;99.90
2002;DHT22;1003;48.002;7.788;2022-12-07T06:39:31;1.50;99.90
2002;DHT22;1003;48.002;7.788;2022-12-07T06:41:58;1.50;99.90
2002;DHT22;1003;48.002;7.788;2022-12-07T06:44:25;1.50;99.90
2002;DHT22;1003;48.002;7.788;2022-12-07T06:46:53;1.70;99.90
2002;DHT22;1003;48.002;7.788;2022-12-07T06:49:20;1.80;99.90
2002;DHT22;1003;48.002;7.788;2022-12-07T06:51:48;1.80;99.90
2002;DHT22;1003;48.002;7.788;2022-12-07T06:54:16;1.70;99.90
2002;DHT22;1003;48.002;7.788;2022-12-07T06:56:44;1.70;99.90
2002;DHT22;1003;48.002;7.788;2022-12-07T06:59:11;1.70;99.90
2002;DHT22;1003;48.002;7.788;2022-12-07T07:01:38;1.50;99.90
2002;DHT22;1003;48.002;7.788;2022-12-07T07:04:05;1.40;99.90
2002;DHT22;1003;48.002;7.788;2022-12-07T07:06:32;1.40;99.90
2002;DHT22;1003;48.002;7.788;2022-12-07T07:09:01;1.30;99.90
2002;DHT22;1003;48.002;7.788;2022-12-07T07:11:28;1.30;99.90
2002;DHT22;1003;48.002;7.788;2022-12-07T07:13:55;1.30;99.90
2002;DHT22;1003;48.002;7.788;2022-12-07T07:16:27;1.30;99.90
2002;DHT22;1003;48.002;7.788;2022-12-07T07:18:55;1.30;99.90
2002;DHT22;1003;48.002;7.788;2022-12-07T07:21:23;1.30;99.90
2002;DHT22;1003;48.002;7.788;2022-12-07T07:23:50;1.30;99.90
2002;DHT22;1003;48.002;7.788;2022-12-07T07:26:18;1.30;99.90
2002;DHT22;1003;48.002;7.788;2022-12-07T07:28:45;1.40;99.90
2002;DHT22;1003;48.002;7.788;2022-12-07T07:31:12;1.40;99.90
2002;DHT22;1003;48.002;7.788;2022-12-07T07:33:39;1.50;99.90
2002;DHT22;1003;48.002;7.788;2022-12-07T07:36:07;1.50;99.90
2002;DHT22;1003;48.002;7.788;2022-12-07T07:38:34;1.50;99.90
2002;DHT22;1003;48.002;7.788;2022-12-07T07:41:02;1.40;99.90
2002;DHT22;1003;48.002;7.788;2022-12-07T07:43:30;1.40;99.90
2002;DHT22;1003;48.002;7.788;2022-12-07T07:45:58;1.50;99.90
2002;DHT22;1003;48.002;7.788;2022-12-07T07:48:25;1.60;99.90
2002;DHT22;1003;48.002;7.788;2022-12-07T07:50:52;1.70;99.90
2002;DHT22;1003;48.002;7.788;2022-12-07T07:53:19;1.60;99.90
2002;DHT22;1003;48.002;7.788;2022-12-07T07:55:53;1.50;99.90
2002;DHT22;1003;48.002;7.788;2022-12-07T07:58:21;1.40;99.90
2002;DHT22;1003;48.002;7.788;2022-12-07T08:00:50;1.30;99.90
2002;DHT22;1003;48.002;7.788;2022-12-07T08:03:17;1.20;99.90
2002;DHT22;1003;48.002;7.788;2022-12-07T08:05:44;1.10;99.90
2002;DHT22;1003;48.002;7.788;2022-12-07T08:08:11;1.10;99.90
2002;DHT22;1003;48.002;7.788;2022-12-07T08:10:38;1.20;99.90
2002;DHT22;1003;48.002;7.788;2022-12-07T08:13:05;1.20;99.90
2002;DHT22;1003;48.002;7.788;2022-12-07T08:15:40;1.20;99.90
2002;DHT22;1003;48.002;7.788;2022-12-07T08:18:10;1.20;99.90
2002;DHT22;1003;48.002;7.788;2022-12-07T08:20:39;1.30;99.90
2002;DHT22;1003;48.002;7.788;2022-12-07T08:23:09;1.30;99.90
2002;DHT22;1003;48.002;7.788;2022-12-07T08:25:38;1.40;99.90
2002;DHT22;1003;48.002;7.788;2022-12-07T08:28:06;1.40;99.90
2002;DHT22;1003;48.002;7.788;2022-12-07T08:30:33;1.60;99.90
2002;DHT22;1003;48.002;7.788;2022-12-07T08:33:00;1.70;99.90
2002;DHT22;1003;48.002;7.788;2022-12-07T08:35:28;1.70;99.90
2002;DHT22;1003;48.002;7.788;2022-12-07T08:37:55;1.80;99.90
2002;DHT22;1003;48.002;7.788;2022-12-07T08:40:23;1.80;99.90
2002;DHT22;1003;48.002;7.788;2022-12-07T08:42:51;1.90;99.90
2002;DHT22;1003;48.002;7.788;2022-12-07T08:45:20;2.00;99.90
2002;DHT22;1003;48.002;7.788;2022-12-07T08:47:50;2.00;99.90
2002;DHT22;1003;48.002;7.788;2022-12-07T08:50:21;2.00;99.90
2002;DHT22;1003;48.002;7.788;2022-12-07T08:52:54;2.10;99.90
2002;DHT22;1003;48.002;7.788;2022-12-07T08:55:23;2.10;99.90
2002;DHT22;1003;48.002;7.788;2022-12-07T08:57:51;2.10;99.90
2002;DHT22;1003;48.002;7.788;2022-12-07T09:00:19;2.10;99.90
2002;DHT22;1003;48.002;7.788;2022-12-07T09:02:46;2.20;99.90
2002;DHT22;1003;48.002;7.788;2022-12-07T09:05:14;2.30;99.90
2002;DHT22;1003;48.002;7.788;2022-12-07T09:07:42;2.30;99.90
2002;DHT22;1003;48.002;7.788;2022-12-07T09:10:13;2.40;99.90
2002;DHT22;1003;48.002;7.788;2022-12-07T09:12:40;2.50;99.90
2002;DHT22;1003;48.002;7.788;2022-12-07T09:15:07;2.60;99.90
2002;DHT22;1003;48.002;7.788;2022-12-07T09:17:35;2.70;99.90
2002;DHT22;1003;48.002;7.788;2022-12-07T09:20:04;2.90;99.90
2002;DHT22;1003;48.002;7.788;2022-12-07T09:22:32;3.10;99.90
2002;DHT22;1003;48.002;7.788;2022-12-07T09:25:00;3.20;99.90
2002;DHT22;1003;48.002;7.788;2022-12-07T09:27:29;3.30;99.90
2002;DHT22;1003;48.002;7.788;2022-12-07T09:29:56;3.50;99.90
2002;DHT22;1003;48.002;7.788;2022-12-07T09:32:23;3.60;99.90
2002;DHT22;1003;48.002;7.788;2022-12-07T09:34:51;3.70;99.90
2002;DHT22;1003;48.002;7.788;2022-12-07T09:37:18;3.70;99.90
2002;DHT22;1003;48.002;7.788;2022-12-07T09:39:45;3.80;99.90
2002;DHT22;1003;48.002;7.788;2022-12-07T09:42:24;3.80;99.90
2002;DHT22;1003;48.002;7.788;2022-12-07T09:44:56;3.90;99.90
2002;DHT22;1003;48.002;7.788;2022-12-07T09:47:25;4.00;99.90
2002;DHT22;1003;48.002;7.788;2022-12-07T09:49:57;4.00;99.90
2002;DHT22;1003;48.002;7.788;2022-12-07T09:52:30;4.00;99.90
2002;DHT22;1003;48.002;7.788;2022-12-07T09:54:57;3.90;99.90
2002;DHT22;1003;48.002;7.788;2022-12-07T09:57:28;3.90;99.90
2002;DHT22;1003;48.002;7.788;2022-12-07T10:00:02;3.80;99.90
2002;DHT22;1003;48.002;7.788;2022-12-07T10:02:36;3.80;99.90
2002;DHT22;1003;48.002;7.788;2022-12-07T10:05:06;3.80;99.90
2002;DHT22;1003;48.002;7.788;2022-12-07T10:07:38;3.90;99.90
2002;DHT22;1003;48.002;7.788;2022-12-07T10:10:13;3.90;99.90
2002;DHT22;1003;48.002;7.788;2022-12-07T10:12:56;4.10;99.90
2002;DHT22;1003;48.002;7.788;2022-12-07T10:15:45;4.20;99.90
2002;DHT22;1003;48.002;7.788;2022-12-07T10:18:26;4.40;99.90
2002;DHT22;1003;48.002;7.788;2022-12-07T10:21:11;4.60;99.90
2002;DHT22;1003;48.002;7.788;2022-12-07T10:23:41;4.70;99.90
2002;DHT22;1003;48.002;7.788;2022-12-07T10:26:30;4.90;99.90
2002;DHT22;1003;48.002;7.788;2022-12-07T10:29:02;4.90;99.90
2002;DHT22;1003;48.002;7.788;2022-12-07T10:31:42;5.00;99.90
2002;DHT22;1003;48.002;7.788;2022-12-07T10:34:21;5.20;99.90
2002;DHT22;1003;48.002;7.788;2022-12-07T10:36:51;5.30;99.90
2002;DHT22;1003;48.002;7.788;2022-12-07T10:39:21;5.40;99.90
2002;DHT22;1003;48.002;7.788;2022-12-07T10:41:54;5.50;99.90
2002;DHT22;1003;48.002;7.788;2022-12-07T10:44:24;5.70;99.90
2002;DHT22;1003;48.002;7.788;2022-12-07T10:47:13;5.60;99.90
2002;DHT22;1003;48.002;7.788;2022-12-07T10:50:12;5.60;99.90
2002;DHT22;1003;48.002;7.788;2022-12-07T10:53:05;5.60;99.90
2002;DHT22;1003;48.002;7.788;2022-12-07T10:55:53;5.60;99.90
2002;DHT22;1003;48.002;7.788;2022-12-07T10:58:39;5.90;99.90
2002;DHT22;1003;48.002;7.788;2022-12-07T11:01:23;6.10;99.90
2002;DHT22;1003;48.002;7.788;2022-12-07T11:04:20;6.30;99.90
2002;DHT22;1003;48.002;7.788;2022-12-07T11:06:59;6.30;99.90
2002;DHT22;1003;48.002;7.788;2022-12-07T11:09:52;6.40;99.90
2002;DHT22;1003;48.002;7.788;2022-12-07T11:12:38;6.50;99.90
2002;DHT22;1003;48.002;7.788;2022-12-07T11:15:18;6.30;99.90
2002;DHT22;1003;48.002;7.788;2022-12-07T11:17:55;6.30;99.90
2002;DHT22;1003;48.002;7.788;2022-12-07T11:20:41;6.30;99.90
2002;DHT22;1003;48.002;7.788;2022-12-07T11:23:18;6.40;99.90
2002;DHT22;1003;48.002;7.788;2022-12-07T11:26:01;6.60;99.90
2002;DHT22;1003;48.002;7.788;2022-12-07T11:28:55;6.60;99.90
2002;DHT22;1003;48.002;7.788;2022-12-07T11:31:41;6.70;99.90
2002;DHT22;1003;48.002;7.788;2022-12-07T11:34:29;7.00;99.90
2002;DHT22;1003;48.002;7.788;2022-12-07T11:37:09;7.30;99.90
2002;DHT22;1003;48.002;7.788;2022-12-07T11:39:44;7.80;99.90
2002;DHT22;1003;48.002;7.788;2022-12-07T11:42:21;7.60;99.90
2002;DHT22;1003;48.002;7.788;2022-12-07T11:44:55;7.50;99.90
2002;DHT22;1003;48.002;7.788;2022-12-07T11:47:34;7.30;99.90
2002;DHT22;1003;48.002;7.788;2022-12-07T11:50:19;7.30;99.90
2002;DHT22;1003;48.002;7.788;2022-12-07T11:52:58;7.40;99.90
2002;DHT22;1003;48.002;7.788;2022-12-07T11:55:38;7.30;99.90
2002;DHT22;1003;48.002;7.788;2022-12-07T11:58:19;7.30;99.90
2002;DHT22;1003;48.002;7.788;2022-12-07T12:01:11;7.60;99.90
2002;DHT22;1003;48.002;7.788;2022-12-07T12:03:48;7.40;99.90
2002;DHT22;1003;48.002;7.788;2022-12-07T12:06:17;7.30;99.90
2002;DHT22;1003;48.002;7.788;2022-12-07T12:08:51;7.30;99.90
2002;DHT22;1003;48.002;7.788;2022-12-07T12:11:39;7.50;99.90
2002;DHT22;1003;48.002;7.788;2022-12-07T12:14:29;7.70;99.90
2002;DHT22;1003;48.002;7.788;2022-12-07T12:17:38;7.40;99.90
2002;DHT22;1003;48.002;7.788;2022-12-07T12:20:22;7.50;99.90
2002;DHT22;1003;48.002;7.788;2022-12-07T12:22:57;7.40;99.90
2002;DHT22;1003;48.002;7.788;2022-12-07T12:25:34;7.30;99.90
2002;DHT22;1003;48.002;7.788;2022-12-07T12:28:15;7.20;99.90
2002;DHT22;1003;48.002;7.788;2022-12-07T12:31:04;7.20;99.90
2002;DHT22;1003;48.002;7.788;2022-12-07T12:33:35;7.00;99.90
2002;DHT22;1003;48.002;7.788;2022-12-07T12:36:23;7.00;99.90
2002;DHT22;1003;48.002;7.788;2022-12-07T12:39:10;7.30;99.90
2002;DHT22;1003;48.002;7.788;2022-12-07T12:41:58;7.40;99.90
2002;DHT22;1003;48.002;7.788;2022-12-07T12:45:03;7.10;99.90
2002;DHT22;1003;48.002;7.788;2022-12-07T12:47:58;6.90;99.90
2002;DHT22;1003;48.002;7.788;2022-12-07T12:50:31;7.10;99.90
2002;DHT22;1003;48.002;7.788;2022-12-07T12:53:19;7.20;99.90
2002;DHT22;1003;48.002;7.788;2022-12-07T12:56:11;7.10;99.90
2002;DHT22;1003;48.002;7.788;2022-12-07T13:02:09;6.90;99.90
2002;DHT22;1003;48.002;7.788;2022-12-07T13:04:52;6.90;99.90
2002;DHT22;1003;48.002;7.788;2022-12-07T13:07:47;7.00;99.90
2002;DHT22;1003;48.002;7.788;2022-12-07T13:10:37;6.60;99.90
2002;DHT22;1003;48.002;7.788;2022-12-07T13:13:31;6.80;99.90
2002;DHT22;1003;48.002;7.788;2022-12-07T13:16:39;6.90;99.90
2002;DHT22;1003;48.002;7.788;2022-12-07T13:22:49;6.70;99.90
2002;DHT22;1003;48.002;7.788;2022-12-07T13:25:30;6.60;99.90
2002;DHT22;1003;48.002;7.788;2022-12-07T13:28:09;6.80;99.90
2002;DHT22;1003;48.002;7.788;2022-12-07T13:30:47;6.80;99.90
2002;DHT22;1003;48.002;7.788;2022-12-07T13:33:28;6.80;99.90
2002;DHT22;1003;48.002;7.788;2022-12-07T13:35:56;7.10;99.90
2002;DHT22;1003;48.002;7.788;2022-12-07T13:38:29;7.10;99.90
2002;DHT22;1003;48.002;7.788;2022-12-07T13:41:03;7.00;99.90
2002;DHT22;1003;48.002;7.788;2022-12-07T13:43:42;6.90;99.90
2002;DHT22;1003;48.002;7.788;2022-12-07T13:46:11;6.80;99.90
2002;DHT22;1003;48.002;7.788;2022-12-07T13:48:45;6.80;99.90
2002;DHT22;1003;48.002;7.788;2022-12-07T13:51:19;7.00;99.90
2002;DHT22;1003;48.002;7.788;2022-12-07T13:53:49;7.10;99.90
2002;DHT22;1003;48.002;7.788;2022-12-07T13:56:18;6.90;99.90
2002;DHT22;1003;48.002;7.788;2022-12-07T13:58:47;6.60;99.90
2002;DHT22;1003;48.002;7.788;2022-12-07T14:01:15;6.80;99.90
2002;DHT22;1003;48.002;7.788;2022-12-07T14:03:45;6.70;99.90
2002;DHT22;1003;48.002;7.788;2022-12-07T14:06:19;6.60;99.90
2002;DHT22;1003;48.002;7.788;2022-12-07T14:09:05;6.50;99.90
2002;DHT22;1003;48.002;7.788;2022-12-07T14:11:37;6.40;99.90
2002;DHT22;1003;48.002;7.788;2022-12-07T14:14:05;6.60;99.90
2002;DHT22;1003;48.002;7.788;2022-12-07T14:16:34;6.50;99.90
2002;DHT22;1003;48.002;7.788;2022-12-07T14:22:23;6.30;99.90
2002;DHT22;1003;48.002;7.788;2022-12-07T14:24:59;6.20;99.90
2002;DHT22;1003;48.002;7.788;2022-12-07T14:27:32;6.30;99.90
2002;DHT22;1003;48.002;7.788;2022-12-07T14:30:02;6.10;99.90
2002;DHT22;1003;48.002;7.788;2022-12-07T14:32:31;6.10;99.90
2002;DHT22;1003;48.002;7.788;2022-12-07T14:35:09;6.10;99.90
2002;DHT22;1003;48.002;7.788;2022-12-07T14:37:37;6.10;99.90
2002;DHT22;1003;48.002;7.788;2022-12-07T14:40:07;6.20;99.90
2002;DHT22;1003;48.002;7.788;2022-12-07T14:42:39;6.20;99.90
2002;DHT22;1003;48.002;7.788;2022-12-07T14:45:13;6.20;99.90
2002;DHT22;1003;48.002;7.788;2022-12-07T14:47:43;6.10;99.90
2002;DHT22;1003;48.002;7.788;2022-12-07T14:50:13;5.90;99.90
2002;DHT22;1003;48.002;7.788;2022-12-07T14:52:43;5.90;99.90
2002;DHT22;1003;48.002;7.788;2022-12-07T14:55:18;5.90;99.90
2002;DHT22;1003;48.002;7.788;2022-12-07T14:57:50;5.90;99.90
2002;DHT22;1003;48.002;7.788;2022-12-07T15:00:18;5.80;99.90
2002;DHT22;1003;48.002;7.788;2022-12-07T15:02:47;5.70;99.90
2002;DHT22;1003;48.002;7.788;2022-12-07T15:05:17;5.50;99.90
2002;DHT22;1003;48.002;7.788;2022-12-07T15:07:46;5.50;99.90
2002;DHT22;1003;48.002;7.788;2022-12-07T15:10:16;5.40;99.90
2002;DHT22;1003;48.002;7.788;2022-12-07T15:12:45;5.30;99.90
2002;DHT22;1003;48.002;7.788;2022-12-07T15:15:13;5.20;99.90
2002;DHT22;1003;48.002;7.788;2022-12-07T15:17:40;5.20;99.90
2002;DHT22;1003;48.002;7.788;2022-12-07T15:20:11;5.10;99.90
2002;DHT22;1003;48.002;7.788;2022-12-07T15:22:40;5.00;99.90
2002;DHT22;1003;48.002;7.788;2022-12-07T15:25:09;4.90;99.90
2002;DHT22;1003;48.002;7.788;2022-12-07T15:27:39;4.80;99.90
2002;DHT22;1003;48.002;7.788;2022-12-07T15:30:07;4.70;99.90
2002;DHT22;1003;48.002;7.788;2022-12-07T15:32:34;4.50;99.90
2002;DHT22;1003;48.002;7.788;2022-12-07T15:35:02;4.40;99.90
2002;DHT22;1003;48.002;7.788;2022-12-07T15:37:29;4.30;99.90
2002;DHT22;1003;48.002;7.788;2022-12-07T15:39:57;4.10;99.90
2002;DHT22;1003;48.002;7.788;2022-12-07T15:42:24;4.00;99.90
2002;DHT22;1003;48.002;7.788;2022-12-07T15:44:51;3.80;99.90
2002;DHT22;1003;48.002;7.788;2022-12-07T15:47:30;3.70;99.90
2002;DHT22;1003;48.002;7.788;2022-12-07T15:49:58;3.50;99.90
2002;DHT22;1003;48.002;7.788;2022-12-07T15:52:25;3.40;99.90
2002;DHT22;1003;48.002;7.788;2022-12-07T15:54:52;3.30;99.90
2002;DHT22;1003;48.002;7.788;2022-12-07T15:57:21;3.10;99.90
2002;DHT22;1003;48.002;7.788;2022-12-07T15:59:48;3.00;99.90
2002;DHT22;1003;48.002;7.788;2022-12-07T16:02:15;2.90;99.90
2002;DHT22;1003;48.002;7.788;2022-12-07T16:04:42;2.80;99.90
2002;DHT22;1003;48.002;7.788;2022-12-07T16:07:09;2.70;99.90
2002;DHT22;1003;48.002;7.788;2022-12-07T16:09:37;2.60;99.90
2002;DHT22;1003;48.002;7.788;2022-12-07T16:12:04;2.50;99.90
2002;DHT22;1003;48.002;7.788;2022-12-07T16:14:33;2.40;99.90
2002;DHT22;1003;48.002;7.788;2022-12-07T16:17:00;2.40;99.90
2002;DHT22;1003;48.002;7.788;2022-12-07T16:19:28;2.30;99.90
2002;DHT22;1003;48.002;7.788;2022-12-07T16:21:55;2.20;99.90
2002;DHT22;1003;48.002;7.788;2022-12-07T16:24:22;2.10;99.90
2002;DHT22;1003;48.002;7.788;2022-12-07T16:26:49;2.00;99.90
2002;DHT22;1003;48.002;7.788;2022-12-07T16:29:17;1.90;99.90
2002;DHT22;1003;48.002;7.788;2022-12-07T16:31:48;1.80;99.90
2002;DHT22;1003;48.002;7.788;2022-12-07T16:34:16;1.70;99.90
2002;DHT22;1003;48.002;7.788;2022-12-07T16:36:43;1.60;99.90
2002;DHT22;1003;48.002;7.788;2022-12-07T16:39:11;1.50;99.90
2002;DHT22;1003;48.002;7.788;2022-12-07T16:41:38;1.40;99.90
2002;DHT22;1003;48.002;7.788;2022-12-07T16:44:07;1.40;99.90
2002;DHT22;1003;48.002;7.788;2022-12-07T16:46:38;1.30;99.90
2002;DHT22;1003;48.002;7.788;2022-12-07T16:49:06;1.20;99.90
2002;DHT22;1003;48.002;7.788;2022-12-07T16:51:37;1.10;99.90
2002;DHT22;1003;48.002;7.788;2022-12-07T16:54:04;1.00;99.90
2002;DHT22;1003;48.002;7.788;2022-12-07T16:56:32;0.90;99.90
2002;DHT22;1003;48.002;7.788;2022-12-07T16:58:59;0.90;99.90
2002;DHT22;1003;48.002;7.788;2022-12-07T17:01:26;0.80;99.90